createdAt,value
2019-06-26T00:02:11.461Z,96861.99
2019-06-26T00:04:40.084Z,96860.87
2019-06-26T00:07:08.485Z,96865.18
2019-06-26T00:09:37.050Z,96862.56
2019-06-26T00:12:05.480Z,96862.71
2019-06-26T00:14:33.880Z,96863.47
2019-06-26T00:17:02.282Z,96863.30
2019-06-26T00:19:30.710Z,96865.11
2019-06-26T00:21:59.116Z,96865.59
2019-06-26T00:24:27.508Z,96867.26
2019-06-26T00:26:55.930Z,96868.13
2019-06-26T00:29:24.344Z,96872.59
2019-06-26T00:31:52.744Z,96872.64
2019-06-26T00:34:21.177Z,96872.30
2019-06-26T00:36:49.574Z,96871.75
2019-06-26T00:39:18.248Z,96866.66
2019-06-26T00:41:46.646Z,96877.56
2019-06-26T00:44:15.050Z,96871.53
2019-06-26T00:46:43.447Z,96875.98
2019-06-26T00:49:11.984Z,96871.92
2019-06-26T00:51:40.553Z,96872.73
2019-06-26T00:54:08.972Z,96867.21
2019-06-26T00:56:37.474Z,96865.53
2019-06-26T00:59:05.874Z,96869.89
2019-06-26T01:01:34.271Z,96874.52
2019-06-26T01:04:04.365Z,96876.66
2019-06-26T01:06:44.578Z,96876.36
2019-06-26T01:09:15.928Z,96884.70
2019-06-26T01:11:44.486Z,96878.13
2019-06-26T01:14:13.023Z,96881.86
2019-06-26T01:16:41.448Z,96878.95
2019-06-26T01:19:10.013Z,96875.83
2019-06-26T01:21:38.473Z,96884.27
2019-06-26T01:24:07.122Z,96880.81
2019-06-26T01:26:35.923Z,96879.45
2019-06-26T01:29:04.532Z,96878.31
2019-06-26T01:31:33.077Z,96875.14
2019-06-26T01:34:02.988Z,96873.31
2019-06-26T01:36:31.384Z,96881.38
2019-06-26T01:38:59.913Z,96872.84
2019-06-26T01:41:28.314Z,96875.03
2019-06-26T01:43:56.708Z,96873.78
2019-06-26T01:46:25.514Z,96884.20
2019-06-26T01:48:53.890Z,96875.81
2019-06-26T01:51:22.417Z,96880.14
2019-06-26T01:53:50.993Z,96880.38
2019-06-26T01:56:19.684Z,96875.41
2019-06-26T01:58:48.084Z,96884.94
2019-06-26T02:01:16.513Z,96879.87
2019-06-26T02:03:44.922Z,96884.22
2019-06-26T02:06:13.389Z,96880.52
2019-06-26T02:08:41.833Z,96881.33
2019-06-26T02:11:10.250Z,96881.14
2019-06-26T02:13:38.635Z,96883.64
2019-06-26T02:16:07.075Z,96879.89
2019-06-26T02:18:46.357Z,96883.20
2019-06-26T02:21:14.975Z,96881.63
2019-06-26T02:23:43.418Z,96883.78
2019-06-26T02:26:11.942Z,96885.44
2019-06-26T02:28:40.391Z,96882.16
2019-06-26T02:31:08.786Z,96886.92
2019-06-26T02:33:37.200Z,96884.72
2019-06-26T02:36:05.721Z,96887.31
2019-06-26T02:38:34.122Z,96882.88
2019-06-26T02:41:05.016Z,96889.33
2019-06-26T02:43:33.514Z,96888.63
2019-06-26T02:46:01.915Z,96889.02
2019-06-26T02:48:30.313Z,96887.21
2019-06-26T02:50:58.847Z,96890.55
2019-06-26T02:53:27.341Z,96885.05
2019-06-26T02:55:55.733Z,96881.62
2019-06-26T02:58:24.234Z,96888.48
2019-06-26T03:00:52.633Z,96892.87
2019-06-26T03:03:21.106Z,96896.67
2019-06-26T03:05:49.732Z,96891.36
2019-06-26T03:08:18.198Z,96887.95
2019-06-26T03:10:46.674Z,96891.12
2019-06-26T03:13:15.361Z,96890.35
2019-06-26T03:15:43.762Z,96887.58
2019-06-26T03:18:12.233Z,96886.06
2019-06-26T03:20:43.703Z,96892.77
2019-06-26T03:23:12.110Z,96893.17
2019-06-26T03:25:40.507Z,96896.87
2019-06-26T03:28:08.944Z,96897.63
2019-06-26T03:30:37.418Z,96897.28
2019-06-26T03:33:05.809Z,96892.55
2019-06-26T03:35:34.297Z,96895.12
2019-06-26T03:38:02.699Z,96899.22
2019-06-26T03:40:31.099Z,96901.10
2019-06-26T03:42:59.610Z,96894.71
2019-06-26T03:45:28.013Z,96896.31
2019-06-26T03:47:56.417Z,96899.89
2019-06-26T03:50:25.843Z,96902.59
2019-06-26T03:52:54.361Z,96902.28
2019-06-26T03:55:23.166Z,96902.69
2019-06-26T03:57:51.656Z,96908.34
2019-06-26T04:00:34.843Z,96911.84
2019-06-26T04:03:03.274Z,96910.55
2019-06-26T04:05:31.675Z,96916.54
2019-06-26T04:08:00.074Z,96921.70
2019-06-26T04:10:28.536Z,96919.64
2019-06-26T04:12:56.990Z,96923.47
2019-06-26T04:15:40.856Z,96922.66
2019-06-26T04:17:55.490Z,96923.59
2019-06-26T04:20:23.885Z,96922.41
2019-06-26T04:22:52.285Z,96927.28
2019-06-26T04:25:20.880Z,96931.20
2019-06-26T04:27:49.353Z,96935.39
2019-06-26T04:30:18.196Z,96938.31
2019-06-26T04:32:46.695Z,96933.27
2019-06-26T04:35:15.629Z,96935.52
2019-06-26T04:37:44.057Z,96933.91
2019-06-26T04:40:12.843Z,96939.47
2019-06-26T04:42:41.281Z,96943.66
2019-06-26T04:45:10.013Z,96946.41
2019-06-26T04:47:38.451Z,96953.28
2019-06-26T04:50:09.209Z,96951.53
2019-06-26T04:52:37.603Z,96948.47
2019-06-26T04:55:07.273Z,96952.11
2019-06-26T04:57:35.795Z,96947.52
2019-06-26T05:00:06.865Z,96952.20
2019-06-26T05:02:35.275Z,96953.80
2019-06-26T05:05:05.707Z,96956.09
2019-06-26T05:07:34.172Z,96954.59
2019-06-26T05:10:02.594Z,96950.55
2019-06-26T05:12:31.057Z,96949.24
2019-06-26T05:14:59.451Z,96956.30
2019-06-26T05:17:27.983Z,96954.14
2019-06-26T05:19:56.373Z,96949.59
2019-06-26T05:22:24.782Z,96961.88
2019-06-26T05:24:53.209Z,96962.53
2019-06-26T05:27:21.610Z,96962.34
2019-06-26T05:29:50.005Z,96953.00
2019-06-26T05:32:18.447Z,96956.05
2019-06-26T05:34:46.853Z,96961.31
2019-06-26T05:37:15.251Z,96964.70
2019-06-26T05:39:43.694Z,96963.47
2019-06-26T05:42:12.133Z,96961.96
2019-06-26T05:44:40.563Z,96965.59
2019-06-26T05:47:08.989Z,96968.13
2019-06-26T05:49:37.389Z,96962.84
2019-06-26T05:52:05.790Z,96977.05
2019-06-26T05:54:34.244Z,96974.14
2019-06-26T05:57:02.710Z,96972.08
2019-06-26T05:59:31.301Z,96978.14
2019-06-26T06:01:59.823Z,96976.58
2019-06-26T06:04:28.223Z,96982.06
2019-06-26T06:06:56.664Z,96982.95
2019-06-26T06:09:25.085Z,96988.46
2019-06-26T06:11:53.485Z,96985.55
2019-06-26T06:14:21.877Z,96982.91
2019-06-26T06:16:50.398Z,96994.08
2019-06-26T06:19:18.808Z,96991.17
2019-06-26T06:21:47.209Z,96987.75
2019-06-26T06:24:15.777Z,96989.17
2019-06-26T06:26:44.234Z,96990.91
2019-06-26T06:29:12.699Z,96986.64
2019-06-26T06:31:41.129Z,96983.43
2019-06-26T06:34:09.535Z,96990.84
2019-06-26T06:36:37.937Z,96990.41
2019-06-26T06:39:06.934Z,96987.77
2019-06-26T06:41:37.052Z,96981.09
2019-06-26T06:44:05.510Z,96987.67
2019-06-26T06:46:34.124Z,96988.55
2019-06-26T06:49:02.690Z,96994.05
2019-06-26T06:51:31.091Z,96996.88
2019-06-26T06:54:02.259Z,96991.81
2019-06-26T06:56:30.653Z,96991.86
2019-06-26T06:58:59.079Z,96990.61
2019-06-26T07:01:27.485Z,96997.47
2019-06-26T07:03:55.887Z,96991.83
2019-06-26T07:06:25.794Z,96995.78
2019-06-26T07:08:54.289Z,96998.05
2019-06-26T07:11:22.762Z,97001.90
2019-06-26T07:13:51.264Z,96997.36
2019-06-26T07:16:19.691Z,96994.74
2019-06-26T07:18:48.085Z,97005.14
2019-06-26T07:21:16.483Z,96998.20
2019-06-26T07:23:44.950Z,97003.17
2019-06-26T07:26:13.585Z,97008.41
2019-06-26T07:28:42.055Z,96998.95
2019-06-26T07:31:10.473Z,97002.62
2019-06-26T07:33:38.884Z,97002.42
2019-06-26T07:36:07.383Z,97002.77
2019-06-26T07:38:36.297Z,97005.56
2019-06-26T07:41:04.841Z,97000.47
2019-06-26T07:43:33.248Z,97007.63
2019-06-26T07:46:01.680Z,97002.28
2019-06-26T07:48:30.143Z,96999.11
2019-06-26T07:50:58.597Z,96996.19
2019-06-26T07:53:27.030Z,97000.63
2019-06-26T07:55:55.457Z,97002.84
2019-06-26T07:58:23.855Z,97004.01
2019-06-26T08:00:52.301Z,97000.78
2019-06-26T08:03:20.685Z,97002.48
2019-06-26T08:05:49.127Z,97009.62
2019-06-26T08:08:17.810Z,97007.75
2019-06-26T08:10:46.219Z,97005.91
2019-06-26T08:13:14.629Z,97002.44
2019-06-26T08:15:43.039Z,97002.44
2019-06-26T08:18:11.439Z,97005.48
2019-06-26T08:20:55.130Z,97009.85
2019-06-26T08:23:10.792Z,97009.62
2019-06-26T08:25:39.174Z,97001.77
2019-06-26T08:28:07.582Z,97007.77
2019-06-26T08:30:36.017Z,96999.88
2019-06-26T08:33:04.585Z,96989.84
2019-06-26T08:35:32.981Z,97003.73
2019-06-26T08:38:10.239Z,97008.41
2019-06-26T08:40:31.729Z,97014.14
2019-06-26T08:43:00.157Z,97015.74
2019-06-26T08:45:28.764Z,97014.93
2019-06-26T08:47:57.165Z,97010.83
2019-06-26T08:50:25.641Z,97013.28
2019-06-26T08:52:54.075Z,97021.73
2019-06-26T08:55:22.480Z,97019.01
2019-06-26T08:57:50.956Z,97018.16
2019-06-26T09:00:20.038Z,97012.15
2019-06-26T09:02:48.430Z,97021.11
2019-06-26T09:05:17.870Z,97016.98
2019-06-26T09:07:46.301Z,97021.90
2019-06-26T09:10:14.936Z,97016.66
2019-06-26T09:12:43.343Z,97018.31
2019-06-26T09:15:12.038Z,97017.73
2019-06-26T09:17:40.448Z,97018.50
2019-06-26T09:20:10.685Z,97018.94
2019-06-26T09:22:39.127Z,97016.67
2019-06-26T09:25:20.985Z,97018.75
2019-06-26T09:27:38.750Z,97017.83
2019-06-26T09:30:09.323Z,97024.56
2019-06-26T09:32:37.699Z,97025.59
2019-06-26T09:35:07.066Z,97020.09
2019-06-26T09:37:35.549Z,97020.61
2019-06-26T09:40:05.721Z,97028.02
2019-06-26T09:42:34.184Z,97020.05
2019-06-26T09:45:02.635Z,97018.34
2019-06-26T09:47:31.263Z,97028.01
2019-06-26T09:49:59.701Z,97020.24
2019-06-26T09:52:28.175Z,97019.88
2019-06-26T09:54:56.586Z,97017.61
2019-06-26T09:57:24.965Z,97026.50
2019-06-26T09:59:53.538Z,97025.99
2019-06-26T10:02:21.933Z,97027.16
2019-06-26T10:04:50.350Z,97025.38
2019-06-26T10:07:19.004Z,97031.23
2019-06-26T10:09:47.471Z,97027.81
2019-06-26T10:12:15.977Z,97025.59
2019-06-26T10:14:47.896Z,97028.09
2019-06-26T10:17:14.720Z,97023.70
2019-06-26T10:19:43.127Z,97023.91
2019-06-26T10:22:11.562Z,97019.36
2019-06-26T10:24:39.966Z,97023.88
2019-06-26T10:27:08.370Z,97018.74
2019-06-26T10:29:36.806Z,97025.30
2019-06-26T10:32:05.334Z,97017.60
2019-06-26T10:34:33.743Z,97020.97
2019-06-26T10:37:02.198Z,97025.00
2019-06-26T10:39:30.610Z,97018.08
2019-06-26T10:41:59.030Z,97023.84
2019-06-26T10:44:27.446Z,97017.73
2019-06-26T10:46:55.863Z,97021.26
2019-06-26T10:49:27.401Z,97015.50
2019-06-26T10:51:54.490Z,97021.09
2019-06-26T10:54:22.938Z,97019.08
2019-06-26T10:56:51.301Z,97016.53
2019-06-26T10:59:19.841Z,97017.02
2019-06-26T11:01:48.233Z,97013.08
2019-06-26T11:04:16.625Z,97013.00
2019-06-26T11:06:45.071Z,97012.67
2019-06-26T11:09:13.471Z,97015.09
2019-06-26T11:11:41.866Z,97015.84
2019-06-26T11:14:10.299Z,97014.66
2019-06-26T11:16:38.707Z,97010.04
2019-06-26T11:19:07.200Z,97006.52
2019-06-26T11:21:35.768Z,97008.89
2019-06-26T11:24:04.230Z,97007.20
2019-06-26T11:26:32.701Z,97003.80
2019-06-26T11:29:01.135Z,97002.94
2019-06-26T11:31:29.532Z,97001.84
2019-06-26T11:33:57.930Z,97008.09
2019-06-26T11:36:26.420Z,96998.91
2019-06-26T11:38:54.867Z,97000.24
2019-06-26T11:41:23.260Z,96994.23
2019-06-26T11:43:51.697Z,96996.13
2019-06-26T11:46:20.093Z,96989.70
2019-06-26T11:48:48.494Z,96989.45
2019-06-26T11:51:17.171Z,96994.06
2019-06-26T11:53:45.561Z,96989.30
2019-06-26T11:56:13.952Z,96991.08
2019-06-26T11:58:42.544Z,96984.80
2019-06-26T12:01:10.939Z,96982.30
2019-06-26T12:03:39.451Z,96989.44
2019-06-26T12:06:18.264Z,96986.21
2019-06-26T12:08:37.981Z,96989.84
2019-06-26T12:11:06.394Z,96980.38
2019-06-26T12:13:34.818Z,96978.64
2019-06-26T12:16:03.273Z,96981.20
2019-06-26T12:18:31.673Z,96975.77
2019-06-26T12:21:02.920Z,96981.17
2019-06-26T12:23:31.311Z,96975.87
2019-06-26T12:25:59.748Z,96976.55
2019-06-26T12:28:28.263Z,96974.63
2019-06-26T12:30:56.639Z,96967.24
2019-06-26T12:33:25.043Z,96968.41
2019-06-26T12:35:53.469Z,96965.29
2019-06-26T12:38:21.919Z,96965.33
2019-06-26T12:40:50.333Z,96969.04
2019-06-26T12:43:18.766Z,96965.62
2019-06-26T12:45:47.162Z,96960.78
2019-06-26T12:48:16.495Z,96964.95
2019-06-26T12:50:45.083Z,96959.37
2019-06-26T12:53:13.477Z,96955.75
2019-06-26T12:55:41.943Z,96959.50
2019-06-26T12:58:14.127Z,96958.89
2019-06-26T13:00:40.560Z,96958.57
2019-06-26T13:03:08.963Z,96960.54
2019-06-26T13:05:37.569Z,96955.80
2019-06-26T13:08:06.103Z,96959.02
2019-06-26T13:10:48.440Z,96947.97
2019-06-26T13:13:04.756Z,96952.15
2019-06-26T13:15:33.161Z,96950.44
2019-06-26T13:18:01.671Z,96953.22
2019-06-26T13:20:30.063Z,96943.65
2019-06-26T13:22:58.502Z,96939.03
2019-06-26T13:25:26.862Z,96945.08
2019-06-26T13:27:55.363Z,96935.30
2019-06-26T13:30:29.814Z,96935.77
2019-06-26T13:32:58.205Z,96935.09
2019-06-26T13:35:26.647Z,96933.46
2019-06-26T13:37:55.019Z,96932.44
2019-06-26T13:40:23.427Z,96933.03
2019-06-26T13:42:52.019Z,96929.30
2019-06-26T13:45:20.417Z,96926.20
2019-06-26T13:47:48.815Z,96925.86
2019-06-26T13:50:18.065Z,96924.25
2019-06-26T13:52:46.478Z,96925.42
2019-06-26T13:55:14.938Z,96924.85
2019-06-26T13:57:43.371Z,96925.19
2019-06-26T14:00:12.696Z,96917.13
2019-06-26T14:02:41.101Z,96919.31
2019-06-26T14:05:10.613Z,96915.16
2019-06-26T14:07:39.086Z,96911.70
2019-06-26T14:10:08.021Z,96920.22
2019-06-26T14:12:36.593Z,96913.97
2019-06-26T14:15:08.664Z,96911.78
2019-06-26T14:17:37.096Z,96920.35
2019-06-26T14:20:07.047Z,96912.83
2019-06-26T14:22:35.448Z,96914.09
2019-06-26T14:25:05.688Z,96919.16
2019-06-26T14:27:34.117Z,96913.38
2019-06-26T14:30:02.522Z,96914.80
2019-06-26T14:32:30.993Z,96912.60
2019-06-26T14:34:59.439Z,96907.03
2019-06-26T14:37:28.773Z,96906.45
2019-06-26T14:39:57.170Z,96905.86
2019-06-26T14:42:25.623Z,96909.33
2019-06-26T14:44:54.019Z,96911.06
2019-06-26T14:47:22.758Z,96903.72
2019-06-26T14:49:51.193Z,96901.48
2019-06-26T14:52:19.766Z,96896.30
2019-06-26T14:54:48.998Z,96899.87
2019-06-26T14:57:17.426Z,96898.63
2019-06-26T14:59:45.820Z,96893.97
2019-06-26T15:02:14.218Z,96892.63
2019-06-26T15:04:46.012Z,96884.97
2019-06-26T15:07:12.899Z,96891.22
2019-06-26T15:09:41.368Z,96886.00
2019-06-26T15:12:09.806Z,96876.87
2019-06-26T15:14:38.236Z,96879.41
2019-06-26T15:17:06.673Z,96881.63
2019-06-26T15:19:35.121Z,96879.42
2019-06-26T15:22:03.549Z,96872.62
2019-06-26T15:24:31.954Z,96872.49
2019-06-26T15:27:00.538Z,96879.78
2019-06-26T15:29:28.936Z,96869.35
2019-06-26T15:31:57.344Z,96864.02
2019-06-26T15:34:26.375Z,96868.05
2019-06-26T15:36:54.845Z,96862.27
2019-06-26T15:39:23.248Z,96861.92
2019-06-26T15:41:51.723Z,96863.76
2019-06-26T15:44:20.125Z,96855.30
2019-06-26T15:46:48.524Z,96855.89
2019-06-26T15:49:17.482Z,96851.97
2019-06-26T15:51:45.820Z,96850.47
2019-06-26T15:54:14.226Z,96848.63
2019-06-26T15:56:42.740Z,96850.12
2019-06-26T15:59:11.136Z,96847.59
2019-06-26T16:01:39.539Z,96848.45
2019-06-26T16:04:07.971Z,96845.75
2019-06-26T16:06:36.376Z,96847.52
2019-06-26T16:09:06.929Z,96846.83
2019-06-26T16:11:35.364Z,96845.20
2019-06-26T16:14:03.780Z,96845.30
2019-06-26T16:16:33.411Z,96843.91
2019-06-26T16:19:06.807Z,96841.52
2019-06-26T16:21:35.205Z,96837.81
2019-06-26T16:24:03.892Z,96840.13
2019-06-26T16:26:32.310Z,96836.34
2019-06-26T16:29:00.712Z,96835.03
2019-06-26T16:31:29.108Z,96837.33
2019-06-26T16:33:57.830Z,96829.56
2019-06-26T16:36:26.259Z,96835.36
2019-06-26T16:38:54.641Z,96830.02
2019-06-26T16:41:23.232Z,96828.04
2019-06-26T16:43:51.632Z,96828.25
2019-06-26T16:46:20.037Z,96832.52
2019-06-26T16:48:48.465Z,96831.62
2019-06-26T16:51:16.860Z,96822.14
2019-06-26T16:53:45.265Z,96827.59
2019-06-26T16:56:13.691Z,96826.06
2019-06-26T16:58:42.084Z,96826.41
2019-06-26T17:01:10.486Z,96826.03
2019-06-26T17:03:40.590Z,96820.92
2019-06-26T17:06:08.996Z,96821.83
2019-06-26T17:08:37.443Z,96825.30
2019-06-26T17:11:06.008Z,96830.19
2019-06-26T17:13:34.365Z,96829.95
2019-06-26T17:16:02.767Z,96831.44
2019-06-26T17:18:31.190Z,96825.84
2019-06-26T17:20:59.593Z,96823.27
2019-06-26T17:23:28.023Z,96816.97
2019-06-26T17:25:56.463Z,96824.77
2019-06-26T17:28:24.862Z,96815.92
2019-06-26T17:30:53.265Z,96819.92
2019-06-26T17:33:21.855Z,96818.28
2019-06-26T17:35:50.308Z,96821.19
2019-06-26T17:38:18.709Z,96822.18
2019-06-26T17:40:47.157Z,96821.21
2019-06-26T17:43:15.598Z,96821.74
2019-06-26T17:45:44.070Z,96820.64
2019-06-26T17:48:12.492Z,96820.98
2019-06-26T17:50:40.888Z,96814.09
2019-06-26T17:53:21.004Z,96819.56
2019-06-26T17:55:41.588Z,96821.14
2019-06-26T17:58:10.084Z,96819.88
2019-06-26T18:00:38.622Z,96822.87
2019-06-26T18:03:07.203Z,96817.78
2019-06-26T18:05:35.670Z,96819.93
2019-06-26T18:08:04.267Z,96817.65
2019-06-26T18:10:32.724Z,96814.22
2019-06-26T18:13:01.116Z,96818.81
2019-06-26T18:15:29.592Z,96821.51
2019-06-26T18:17:58.044Z,96819.80
2019-06-26T18:20:26.451Z,96821.14
2019-06-26T18:23:06.679Z,96821.20
2019-06-26T18:25:25.278Z,96817.34
2019-06-26T18:27:53.684Z,96822.66
2019-06-26T18:30:22.859Z,96818.89
2019-06-26T18:32:51.729Z,96819.30
2019-06-26T18:35:20.377Z,96824.92
2019-06-26T18:37:48.786Z,96825.19
2019-06-26T18:40:18.255Z,96829.09
2019-06-26T18:42:46.652Z,96830.05
2019-06-26T18:45:15.192Z,96826.10
2019-06-26T18:47:43.662Z,96829.52
2019-06-26T18:50:12.336Z,96840.06
2019-06-26T18:52:40.747Z,96835.00
2019-06-26T18:55:10.385Z,96844.23
2019-06-26T18:57:38.780Z,96840.23
2019-06-26T19:00:08.931Z,96842.91
2019-06-26T19:02:37.537Z,96844.36
2019-06-26T19:05:07.939Z,96848.20
2019-06-26T19:07:36.483Z,96845.84
2019-06-26T19:10:09.332Z,96841.05
2019-06-26T19:12:37.787Z,96847.95
2019-06-26T19:15:06.762Z,96851.02
2019-06-26T19:17:35.555Z,96851.69
2019-06-26T19:20:05.981Z,96849.03
2019-06-26T19:22:34.394Z,96849.19
2019-06-26T19:25:03.019Z,96848.55
2019-06-26T19:27:31.388Z,96850.34
2019-06-26T19:29:59.871Z,96856.03
2019-06-26T19:32:28.293Z,96858.16
2019-06-26T19:34:56.703Z,96861.39
2019-06-26T19:37:25.177Z,96856.55
2019-06-26T19:39:53.613Z,96861.64
2019-06-26T19:42:22.015Z,96861.37
2019-06-26T19:44:50.487Z,96862.28
2019-06-26T19:47:18.928Z,96870.08
2019-06-26T19:49:47.338Z,96873.14
2019-06-26T19:52:15.743Z,96868.76
2019-06-26T19:54:44.242Z,96876.87
2019-06-26T19:57:12.646Z,96883.75
2019-06-26T19:59:41.119Z,96876.48
2019-06-26T20:02:09.593Z,96878.25
2019-06-26T20:04:38.013Z,96882.77
2019-06-26T20:07:06.415Z,96885.55
2019-06-26T20:09:34.927Z,96891.08
2019-06-26T20:12:03.332Z,96888.92
2019-06-26T20:14:31.732Z,96886.00
2019-06-26T20:17:00.170Z,96881.66
2019-06-26T20:19:28.565Z,96885.83
2019-06-26T20:21:56.973Z,96894.38
2019-06-26T20:24:25.409Z,96892.55
2019-06-26T20:26:53.808Z,96891.24
2019-06-26T20:29:22.240Z,96893.50
2019-06-26T20:31:50.780Z,96888.94
2019-06-26T20:34:19.279Z,96890.19
2019-06-26T20:36:50.451Z,96894.07
2019-06-26T20:39:18.993Z,96892.58
2019-06-26T20:41:47.392Z,96902.50
2019-06-26T20:44:15.792Z,96901.52
2019-06-26T20:46:44.225Z,96903.31
2019-06-26T20:49:12.626Z,96900.16
2019-06-26T20:51:41.036Z,96901.35
2019-06-26T20:54:09.597Z,96906.84
2019-06-26T20:56:38.065Z,96904.95
2019-06-26T20:59:06.470Z,96905.85
2019-06-26T21:01:34.886Z,96906.99
2019-06-26T21:04:03.297Z,96908.77
2019-06-26T21:06:31.692Z,96908.82
2019-06-26T21:09:00.200Z,96905.53
2019-06-26T21:11:28.598Z,96908.03
2019-06-26T21:13:57.006Z,96902.84
2019-06-26T21:16:25.445Z,96911.34
2019-06-26T21:18:53.850Z,96910.30
2019-06-26T21:21:22.248Z,96911.46
2019-06-26T21:23:50.818Z,96901.41
2019-06-26T21:26:19.232Z,96909.90
2019-06-26T21:28:47.699Z,96900.64
2019-06-26T21:31:16.197Z,96900.38
2019-06-26T21:33:44.597Z,96900.13
2019-06-26T21:36:12.996Z,96903.95
2019-06-26T21:38:41.450Z,96910.78
2019-06-26T21:41:09.854Z,96906.17
2019-06-26T21:43:38.255Z,96902.64
2019-06-26T21:46:06.693Z,96896.63
2019-06-26T21:48:35.092Z,96898.01
2019-06-26T21:51:03.495Z,96899.38
2019-06-26T21:53:32.082Z,96900.45
2019-06-26T21:56:00.492Z,96895.55
2019-06-26T21:58:28.890Z,96895.86
2019-06-26T22:00:57.394Z,96892.05
2019-06-26T22:03:25.796Z,96896.12
2019-06-26T22:05:54.440Z,96899.94
2019-06-26T22:08:23.535Z,96901.85
2019-06-26T22:10:51.995Z,96904.28
2019-06-26T22:13:20.410Z,96903.99
2019-06-26T22:15:48.848Z,96902.88
2019-06-26T22:18:17.270Z,96904.23
2019-06-26T22:20:45.729Z,96909.41
2019-06-26T22:23:14.367Z,96906.69
2019-06-26T22:25:50.713Z,96910.22
2019-06-26T22:28:13.362Z,96907.77
2019-06-26T22:30:42.164Z,96908.84
2019-06-26T22:33:10.579Z,96910.45
2019-06-26T22:35:38.979Z,96903.08
2019-06-26T22:38:07.479Z,96909.30
2019-06-26T22:40:35.930Z,96906.50
2019-06-26T22:43:04.388Z,96906.46
2019-06-26T22:45:32.999Z,96905.63
2019-06-26T22:48:01.398Z,96896.33
2019-06-26T22:50:29.802Z,96907.71
2019-06-26T22:52:58.246Z,96903.62
2019-06-26T22:55:26.648Z,96900.33
2019-06-26T22:57:55.096Z,96904.36
2019-06-26T23:00:23.721Z,96905.66
2019-06-26T23:02:52.135Z,96909.66
2019-06-26T23:05:20.591Z,96912.92
2019-06-26T23:07:49.014Z,96905.84
2019-06-26T23:10:18.632Z,96910.20
2019-06-26T23:12:47.119Z,96912.11
2019-06-26T23:15:16.110Z,96908.56
2019-06-26T23:17:44.504Z,96906.38
2019-06-26T23:20:13.072Z,96907.44
2019-06-26T23:22:41.535Z,96911.22
2019-06-26T23:25:10.573Z,96912.27
2019-06-26T23:27:38.976Z,96910.34
2019-06-26T23:30:18.072Z,96904.61
2019-06-26T23:32:46.705Z,96904.55
2019-06-26T23:35:15.345Z,96905.36
2019-06-26T23:37:43.824Z,96904.79
2019-06-26T23:40:12.832Z,96900.72
2019-06-26T23:42:41.246Z,96904.80
2019-06-26T23:45:09.846Z,96904.55
2019-06-26T23:47:38.246Z,96893.14
2019-06-26T23:50:06.838Z,96897.50
2019-06-26T23:52:35.278Z,96896.34
2019-06-26T23:55:05.005Z,96889.26
2019-06-26T23:57:33.409Z,96890.12
